Hyderabad Weather



Hyderabad's Current Weather

Temprature 24.999o broken clouds

broken clouds

Rain: 0 %

Min Temprature24.999o
Max Temprature24.999o
Humidity40
Wind Speed2.16 m/h
Sun Rise06:54:56
Sun Set18:25:03
Current Time: 23-Feb-2019 16:11:51
Lat/Lon: 25.38, 68.38




Hyderabad's Geo Location




Hyderabad's Weather Forecast

Time Overall Temp Min Temp Max Temp Humidity Wind Speed Rain
23-Feb-2019 (Sat)
17:00:00 broken clouds 25.390 24.999 25.390 40 2.16 m/h 0 %
20:00:00 overcast clouds 21.070 20.784 21.070 51 0.87 m/h 0 %
23:00:00 broken clouds 19.560 19.365 19.560 51 1.07 m/h 0 %
24-Feb-2019 (Sun)
02:00:00 few clouds 17.710 17.610 17.710 54 2.81 m/h 0 %
05:00:00 few clouds 16.542 16.542 16.542 82 4.46 m/h 0 %
08:00:00 clear sky 17.078 17.078 17.078 84 2.91 m/h 0 %
11:00:00 clear sky 23.674 23.674 23.674 61 2.31 m/h 0 %
14:00:00 clear sky 26.631 26.631 26.631 51 2.77 m/h 0 %
17:00:00 clear sky 26.446 26.446 26.446 40 2.95 m/h 0 %
20:00:00 clear sky 20.768 20.768 20.768 57 2.96 m/h 0 %
23:00:00 clear sky 16.761 16.761 16.761 82 1.46 m/h 0 %
25-Feb-2019 (Mon)
02:00:00 clear sky 14.605 14.605 14.605 86 1.57 m/h 0 %
05:00:00 clear sky 13.352 13.352 13.352 86 1.21 m/h 0 %
08:00:00 clear sky 14.870 14.870 14.870 84 0.77 m/h 0 %
11:00:00 clear sky 23.872 23.872 23.872 65 1.51 m/h 0 %
14:00:00 clear sky 26.973 26.973 26.973 56 1.37 m/h 0 %
17:00:00 light rain 24.962 24.962 24.962 49 2.31 m/h 16 %
20:00:00 light rain 17.673 17.673 17.673 73 0.06 m/h 10 %
23:00:00 clear sky 15.392 15.392 15.392 86 4.46 m/h 0 %
26-Feb-2019 (Tue)
02:00:00 clear sky 13.626 13.626 13.626 92 2.01 m/h 0 %
05:00:00 clear sky 11.722 11.722 11.722 92 1.51 m/h 0 %
08:00:00 clear sky 13.207 13.207 13.207 91 1.77 m/h 0 %
11:00:00 clear sky 21.417 21.417 21.417 68 2.97 m/h 0 %
14:00:00 clear sky 23.646 23.646 23.646 58 3.46 m/h 0 %
17:00:00 clear sky 23.664 23.664 23.664 46 3.01 m/h 0 %
20:00:00 clear sky 18.336 18.336 18.336 59 2.67 m/h 0 %
23:00:00 clear sky 13.798 13.798 13.798 85 1.37 m/h 0 %
27-Feb-2019 (Wed)
02:00:00 clear sky 11.481 11.481 11.481 84 0.86 m/h 0 %
05:00:00 clear sky 10.144 10.144 10.144 84 1.3 m/h 0 %
08:00:00 clear sky 11.765 11.765 11.765 83 1.22 m/h 0 %
11:00:00 clear sky 22.895 22.895 22.895 61 1.96 m/h 0 %
14:00:00 clear sky 25.911 25.911 25.911 45 1.95 m/h 0 %
17:00:00 clear sky 26.073 26.073 26.073 32 1.51 m/h 0 %
20:00:00 clear sky 18.292 18.292 18.292 42 0.52 m/h 0 %
23:00:00 few clouds 15.566 15.566 15.566 48 3.27 m/h 0 %
28-Feb-2019 (Thu)
02:00:00 clear sky 13.016 13.016 13.016 69 1.66 m/h 0 %
05:00:00 broken clouds 12.463 12.463 12.463 76 1.11 m/h 0 %
08:00:00 scattered clouds 14.665 14.665 14.665 69 1.41 m/h 0 %
11:00:00 clear sky 24.147 24.147 24.147 54 1.76 m/h 0 %
14:00:00 clear sky 27.104 27.104 27.104 46 1.92 m/h 0 %

Famous Cities (60)